Nearby METARS Reports

 

LFML - Marseille/Marign, France
Distance from station: O 47km
Mise à jour: 25/09/2018 13:00
clair
clair
 Wind from O
Vent: O 17 km/h
Température: 23°C
Point de rosée: 12°C
Humidité: 50%
Baromètre: 1027 hPa
Résumé: clair
Visibility: greater than 10 km
2018/09/25 11:00 LFML 251100Z AUTO 26009KT CAVOK 23/12 Q1027 NOSIG
LFMC - Le Luc/Le Cannet, France
Distance from station: ESE 48km
Mise à jour: 25/09/2018 13:00
peu nuageux
peu nuageux
 Wind from ESE
Vent: ESE 26 km/h
Température: 24°C
Point de rosée: 10°C
Humidité: 41%
Baromètre: 1027 hPa
Clouds: peu nuageux
Visibility: 10 km
Cloud details: peu nuageux 1524 m
2018/09/25 11:00 LFMC 251100Z 11014KT 9999 FEW050 24/10 Q1027
LFTH - Hyeres/Le Palyve, France
Distance from station: SSE 53km
Mise à jour: 25/09/2018 13:00
clair
clair
 Wind from E
Vent: E 37 km/h
Température: 24°C
Point de rosée: 11°C
Humidité: 44%
Baromètre: 1026 hPa
Résumé: clair
Visibility: greater than 10 km
2018/09/25 11:00 LFTH 251100Z AUTO 09020KT CAVOK 24/11 Q1026 BECMG 08021G31KT